Time;durP1;ratioP1;P1;durP2;ratioP2;P2;SDS_P1;SDS_P2;PMS_P1;PMS_P2;Temp;Humidity;BMP_temperature;BMP_pressure;BME280_temperature;BME280_humidity;BME280_pressure;Samples;Min_cycle;Max_cycle;Signal;HPM_P1;HPM_P2
2022/01/07 00:01:22;;;;;;;22.15;13.27;;;2.60;88.40;;;;;;6183442;23;20417;-65
2022/01/07 00:03:47;;;;;;;20.45;13.70;;;2.60;88.50;;;;;;6183625;23;20065;-66
2022/01/07 00:06:13;;;;;;;18.30;12.48;;;2.50;88.70;;;;;;6183470;23;20001;-65
2022/01/07 00:08:39;;;;;;;19.27;12.35;;;2.50;88.80;;;;;;6183573;23;20008;-65
2022/01/07 00:11:05;;;;;;;19.83;12.48;;;2.50;88.80;;;;;;6183556;23;20001;-66
2022/01/07 00:13:31;;;;;;;20.15;13.35;;;2.50;88.90;;;;;;6183661;23;20072;-65
2022/01/07 00:15:56;;;;;;;22.90;13.93;;;2.40;88.90;;;;;;6183485;23;20029;-66
2022/01/07 00:18:23;;;;;;;23.10;13.30;;;2.40;89.00;;;;;;6183608;23;20059;-65
2022/01/07 00:20:51;;;;;;;20.67;12.35;;;2.30;89.20;;;;;;6183493;23;20005;-64
2022/01/07 00:23:16;;;;;;;18.70;12.05;;;2.30;89.40;;;;;;6157239;23;20036;-66
2022/01/07 00:25:42;;;;;;;18.50;11.80;;;2.30;89.50;;;;;;6183432;23;20009;-65
2022/01/07 00:28:08;;;;;;;19.15;11.48;;;2.30;89.60;;;;;;6183546;23;20055;-66
2022/01/07 00:30:33;;;;;;;20.15;11.98;;;2.20;89.60;;;;;;6183133;23;20009;-65
2022/01/07 00:33:00;;;;;;;17.92;11.85;;;2.20;89.80;;;;;;6183255;23;20095;-65
2022/01/07 00:35:25;;;;;;;17.30;11.50;;;2.20;89.90;;;;;;6183324;23;20489;-67
2022/01/07 00:37:51;;;;;;;18.90;12.30;;;2.10;90.00;;;;;;6183593;23;20043;-66
2022/01/07 00:40:20;;;;;;;18.98;11.48;;;2.10;90.00;;;;;;6183508;23;20005;-66
2022/01/07 00:42:46;;;;;;;19.27;12.20;;;2.10;90.10;;;;;;6183481;23;20011;-65
2022/01/07 00:45:12;;;;;;;18.58;12.43;;;2.10;90.10;;;;;;6183336;23;20385;-65
2022/01/07 00:47:38;;;;;;;17.73;11.30;;;2.10;90.10;;;;;;6183753;23;20008;-66
2022/01/07 00:50:05;;;;;;;15.38;10.48;;;2.20;89.90;;;;;;6183740;23;20319;-66
2022/01/07 00:52:32;;;;;;;16.38;11.15;;;2.30;89.70;;;;;;6183699;23;20039;-65
2022/01/07 00:54:59;;;;;;;16.50;10.80;;;2.40;89.10;;;;;;6183661;23;20009;-65
2022/01/07 00:57:24;;;;;;;16.88;9.95;;;2.50;88.30;;;;;;6184596;23;20417;-65
2022/01/07 00:59:50;;;;;;;16.73;10.10;;;2.50;87.30;;;;;;6185155;23;20362;-67
2022/01/07 01:02:16;;;;;;;16.02;9.80;;;2.40;86.70;;;;;;6158919;23;20009;-65
2022/01/07 01:04:45;;;;;;;14.23;9.23;;;2.40;86.30;;;;;;6184977;23;20376;-65
2022/01/07 01:07:12;;;;;;;15.75;10.05;;;2.40;86.80;;;;;;6159045;23;20076;-65
2022/01/07 01:09:38;;;;;;;15.32;9.60;;;2.30;86.50;;;;;;6185315;23;20001;-65
2022/01/07 01:12:05;;;;;;;14.57;8.93;;;2.30;86.50;;;;;;6185053;23;20325;-65
2022/01/07 01:14:31;;;;;;;13.88;9.82;;;2.20;86.50;;;;;;6158478;23;20016;-65
2022/01/07 01:16:59;;;;;;;12.35;9.27;;;2.20;86.50;;;;;;6185138;23;20075;-65
2022/01/07 01:19:25;;;;;;;13.20;9.25;;;2.10;86.60;;;;;;6185109;23;20011;-66
2022/01/07 01:21:51;;;;;;;12.98;9.00;;;2.10;86.80;;;;;;6185020;23;20008;-65
2022/01/07 01:24:17;;;;;;;14.38;9.25;;;2.10;86.50;;;;;;6184930;23;20005;-65
2022/01/07 01:26:42;;;;;;;13.55;9.10;;;2.00;86.50;;;;;;6184775;23;19998;-64
2022/01/07 01:29:08;;;;;;;13.38;9.27;;;2.00;86.60;;;;;;6184982;23;19997;-65
2022/01/07 01:31:36;;;;;;;15.00;9.02;;;1.90;86.70;;;;;;6158568;23;20009;-65
2022/01/07 01:34:03;;;;;;;14.48;9.30;;;1.90;86.80;;;;;;6184823;23;20099;-65
2022/01/07 01:36:28;;;;;;;13.70;9.55;;;1.90;86.80;;;;;;6184832;23;20013;-66
2022/01/07 01:38:54;;;;;;;13.00;8.65;;;1.80;86.80;;;;;;6184998;23;20325;-64
2022/01/07 01:41:20;;;;;;;15.55;9.25;;;1.80;86.90;;;;;;6184826;23;20298;-66
2022/01/07 01:43:48;;;;;;;13.82;8.95;;;1.70;87.00;;;;;;6184754;23;20381;-66
2022/01/07 01:46:15;;;;;;;13.52;8.57;;;1.70;87.10;;;;;;6184827;23;20036;-65
2022/01/07 01:48:41;;;;;;;13.88;9.13;;;1.70;87.00;;;;;;6184690;23;20005;-65
2022/01/07 01:51:07;;;;;;;14.52;9.65;;;1.70;87.00;;;;;;6184881;23;20004;-65
2022/01/07 01:53:33;;;;;;;15.55;9.50;;;1.60;86.90;;;;;;6184707;23;20083;-66
2022/01/07 01:55:58;;;;;;;13.88;8.95;;;1.60;86.80;;;;;;6184577;23;20004;-67
2022/01/07 01:58:24;;;;;;;13.65;9.13;;;1.60;86.90;;;;;;6158304;23;20008;-66
2022/01/07 02:00:50;;;;;;;13.57;9.23;;;1.50;86.80;;;;;;6184603;23;20033;-66
2022/01/07 02:03:16;;;;;;;13.68;8.93;;;1.50;87.00;;;;;;6184810;23;20378;-66
2022/01/07 02:05:41;;;;;;;12.10;8.48;;;1.50;86.90;;;;;;6184512;23;20037;-65
2022/01/07 02:08:08;;;;;;;11.20;7.95;;;1.50;86.60;;;;;;6184879;23;20519;-66
2022/01/07 02:10:34;;;;;;;12.55;8.30;;;1.50;86.40;;;;;;6184582;23;20036;-66
2022/01/07 02:12:59;;;;;;;12.32;8.20;;;1.50;86.30;;;;;;6184706;23;20005;-66
2022/01/07 02:15:25;;;;;;;11.98;8.02;;;1.40;86.10;;;;;;6184373;23;20287;-65
2022/01/07 02:17:53;;;;;;;11.10;7.32;;;1.50;86.00;;;;;;6184703;23;20008;-66
2022/01/07 02:20:22;;;;;;;11.75;8.07;;;1.40;85.90;;;;;;6184477;23;20005;-66
2022/01/07 02:22:48;;;;;;;11.77;7.78;;;1.40;85.80;;;;;;6185065;23;20055;-65
2022/01/07 02:25:14;;;;;;;11.55;7.63;;;1.40;85.90;;;;;;6184194;23;20005;-67
2022/01/07 02:27:43;;;;;;;12.00;7.85;;;1.30;86.10;;;;;;6184751;23;20001;-66
2022/01/07 02:30:11;;;;;;;12.98;8.00;;;1.30;86.10;;;;;;6184560;23;20001;-66
2022/01/07 02:32:37;;;;;;;11.45;8.25;;;1.30;86.10;;;;;;6184611;23;20017;-65
2022/01/07 02:35:05;;;;;;;13.45;9.00;;;1.30;86.20;;;;;;6184484;23;20517;-66
2022/01/07 02:37:30;;;;;;;13.10;8.73;;;1.30;86.30;;;;;;6184448;23;20005;-66
2022/01/07 02:39:56;;;;;;;14.38;8.25;;;1.30;86.40;;;;;;6184348;23;20001;-66
2022/01/07 02:42:22;;;;;;;13.18;9.35;;;1.30;86.60;;;;;;6184178;23;20009;-66
2022/01/07 02:44:47;;;;;;;12.60;9.18;;;1.30;86.60;;;;;;6157912;23;20009;-66
2022/01/07 02:47:14;;;;;;;12.88;8.48;;;1.30;86.80;;;;;;6184343;23;20435;-66
2022/01/07 02:49:40;;;;;;;13.50;9.02;;;1.30;86.80;;;;;;6184286;23;20001;-65
2022/01/07 02:52:05;;;;;;;14.23;8.98;;;1.30;86.90;;;;;;6184040;23;20036;-66
2022/01/07 02:54:31;;;;;;;12.32;8.60;;;1.30;86.90;;;;;;6184045;23;20024;-66
2022/01/07 02:56:57;;;;;;;12.43;8.20;;;1.20;87.00;;;;;;6184184;23;20011;-65
2022/01/07 02:59:22;;;;;;;12.30;8.50;;;1.20;87.10;;;;;;6184051;23;20115;-66
2022/01/07 03:01:48;;;;;;;13.18;8.50;;;1.20;87.10;;;;;;6184205;23;20008;-66
2022/01/07 03:04:14;;;;;;;13.07;8.20;;;1.20;87.00;;;;;;6184050;23;20009;-65
2022/01/07 03:06:40;;;;;;;12.70;8.57;;;1.20;87.20;;;;;;6183810;23;20001;-66
2022/01/07 03:09:07;;;;;;;13.95;8.85;;;1.20;87.30;;;;;;6184100;23;19997;-66
2022/01/07 03:11:33;;;;;;;12.88;8.50;;;1.30;87.30;;;;;;6184000;23;20068;-65
2022/01/07 03:13:58;;;;;;;12.40;7.80;;;1.20;87.20;;;;;;6183948;23;20074;-66
2022/01/07 03:16:24;;;;;;;12.32;8.50;;;1.20;87.40;;;;;;6183898;23;20028;-65
2022/01/07 03:18:50;;;;;;;11.43;8.13;;;1.20;87.50;;;;;;6184011;23;20001;-65
2022/01/07 03:21:17;;;;;;;10.80;7.82;;;1.10;87.60;;;;;;6183998;23;20012;-66
2022/01/07 03:23:43;;;;;;;12.32;7.93;;;1.10;87.80;;;;;;6184227;23;20005;-65
2022/01/07 03:26:09;;;;;;;11.00;7.55;;;1.10;87.70;;;;;;6184719;23;20001;-65
2022/01/07 03:28:35;;;;;;;10.88;7.90;;;1.10;87.70;;;;;;6183720;23;20005;-64
2022/01/07 03:31:01;;;;;;;11.90;8.10;;;1.20;88.20;;;;;;6183923;23;20317;-65
2022/01/07 03:33:27;;;;;;;11.40;7.80;;;1.20;87.60;;;;;;6183643;23;20017;-66
2022/01/07 03:35:53;;;;;;;11.30;8.27;;;1.10;87.50;;;;;;6183649;23;20009;-65
2022/01/07 03:38:20;;;;;;;11.80;7.90;;;1.20;87.30;;;;;;6157498;23;20004;-65
2022/01/07 03:40:49;;;;;;;11.13;7.43;;;1.20;87.30;;;;;;6183623;23;20024;-66
2022/01/07 03:43:14;;;;;;;10.82;7.53;;;1.20;87.30;;;;;;6183728;23;20011;-67
2022/01/07 03:45:40;;;;;;;10.48;7.15;;;1.10;87.20;;;;;;6183619;23;20005;-67
2022/01/07 03:48:06;;;;;;;12.02;7.63;;;1.10;87.30;;;;;;6183743;23;20012;-65
2022/01/07 03:50:32;;;;;;;12.05;7.78;;;1.10;87.40;;;;;;6183588;23;20040;-66
2022/01/07 03:53:00;;;;;;;11.73;7.88;;;1.00;87.30;;;;;;6157150;23;20001;-65
2022/01/07 03:55:30;;;;;;;13.32;8.30;;;1.00;87.30;;;;;;6183600;23;20072;-66
2022/01/07 03:57:56;;;;;;;12.18;8.05;;;1.10;87.10;;;;;;6183712;23;20328;-65
2022/01/07 04:00:32;;;;;;;10.35;7.47;;;1.10;87.10;;;;;;6183446;23;20009;-66
2022/01/07 04:02:59;;;;;;;12.85;8.45;;;1.00;87.10;;;;;;6183570;23;20381;-65
2022/01/07 04:05:25;;;;;;;13.93;7.93;;;1.10;86.70;;;;;;6183398;23;20059;-66
2022/01/07 04:07:51;;;;;;;12.93;8.07;;;1.10;86.70;;;;;;6183585;23;20001;-67
2022/01/07 04:10:16;;;;;;;10.60;7.13;;;1.10;86.50;;;;;;6183958;23;20005;-66
2022/01/07 04:12:42;;;;;;;11.45;6.93;;;1.10;86.60;;;;;;6183643;23;20001;-66
2022/01/07 04:15:09;;;;;;;10.18;6.72;;;1.10;86.50;;;;;;6183646;23;20376;-65
2022/01/07 04:17:43;;;;;;;11.52;7.28;;;1.10;85.80;;;;;;6183428;23;20041;-65
2022/01/07 04:20:12;;;;;;;10.05;6.55;;;1.20;85.60;;;;;;6157383;23;20310;-66
2022/01/07 04:22:38;;;;;;;10.40;6.68;;;1.20;85.40;;;;;;6183369;23;20027;-66
2022/01/07 04:25:07;;;;;;;10.70;6.70;;;1.20;85.20;;;;;;6183386;23;20033;-66
2022/01/07 04:27:33;;;;;;;10.05;6.10;;;1.30;84.30;;;;;;6183623;23;20001;-66
2022/01/07 04:29:59;;;;;;;9.60;6.03;;;1.30;83.80;;;;;;6183649;23;20329;-66
2022/01/07 04:32:24;;;;;;;8.00;5.30;;;1.30;83.90;;;;;;6185062;23;20063;-66
2022/01/07 04:34:50;;;;;;;9.20;5.50;;;1.30;83.20;;;;;;6185475;23;20009;-65
2022/01/07 04:37:16;;;;;;;9.00;5.63;;;1.30;83.20;;;;;;6185666;23;20005;-66
2022/01/07 04:39:42;;;;;;;7.88;5.20;;;1.30;83.10;;;;;;6185430;23;20440;-65
2022/01/07 04:42:08;;;;;;;9.13;6.18;;;1.20;82.80;;;;;;6185583;23;20008;-65
2022/01/07 04:44:40;;;;;;;9.73;5.80;;;1.20;83.50;;;;;;6185408;23;20388;-66
2022/01/07 04:47:07;;;;;;;9.00;6.15;;;1.20;82.90;;;;;;6185390;23;20005;-66
2022/01/07 04:49:33;;;;;;;10.52;6.55;;;1.20;82.90;;;;;;6185360;23;20052;-66
2022/01/07 04:51:59;;;;;;;10.35;6.07;;;1.10;83.00;;;;;;6185388;23;20001;-65
2022/01/07 04:54:24;;;;;;;9.73;5.80;;;1.00;83.20;;;;;;6158726;23;20495;-65
2022/01/07 04:56:50;;;;;;;10.45;5.53;;;1.00;83.40;;;;;;6185613;23;20374;-65
2022/01/07 04:59:16;;;;;;;8.75;5.55;;;1.00;83.20;;;;;;6185394;23;20009;-66
2022/01/07 05:01:41;;;;;;;8.75;5.50;;;1.00;83.30;;;;;;6185323;23;20027;-65
2022/01/07 05:04:07;;;;;;;8.95;5.57;;;1.00;83.30;;;;;;6185149;23;20001;-65
2022/01/07 05:06:45;;;;;;;9.20;5.72;;;1.00;83.10;;;;;;6185096;23;20032;-66
2022/01/07 05:09:18;;;;;;;8.70;5.18;;;1.00;83.30;;;;;;6185169;23;20001;-65
2022/01/07 05:11:49;;;;;;;7.50;4.93;;;0.90;83.30;;;;;;6185036;23;20336;-66
2022/01/07 05:14:15;;;;;;;12.30;6.70;;;0.90;83.40;;;;;;6185239;23;19997;-66
2022/01/07 05:16:41;;;;;;;12.80;8.10;;;0.90;83.50;;;;;;6184986;23;20500;-66
2022/01/07 05:19:07;;;;;;;8.82;5.93;;;0.90;83.30;;;;;;6185082;23;20347;-66
2022/01/07 05:21:33;;;;;;;9.05;5.32;;;0.90;83.00;;;;;;6158799;23;20328;-66
2022/01/07 05:23:59;;;;;;;7.57;4.75;;;0.80;83.20;;;;;;6185001;23;20124;-65
2022/01/07 05:26:24;;;;;;;7.20;4.60;;;0.80;83.30;;;;;;6184680;23;19997;-66
2022/01/07 05:28:50;;;;;;;7.97;4.57;;;0.80;83.20;;;;;;6185178;23;20328;-65
2022/01/07 05:31:18;;;;;;;7.65;4.60;;;0.80;83.20;;;;;;6158498;23;20366;-65
2022/01/07 05:33:43;;;;;;;7.05;4.45;;;0.70;82.90;;;;;;6184875;23;20024;-65
2022/01/07 05:36:09;;;;;;;6.82;4.38;;;0.70;82.90;;;;;;6184863;23;20005;-65
2022/01/07 05:38:35;;;;;;;9.27;5.05;;;0.70;83.00;;;;;;6184694;23;20072;-65
2022/01/07 05:41:01;;;;;;;8.73;5.78;;;0.70;83.10;;;;;;6184810;23;20421;-65
2022/01/07 05:43:28;;;;;;;7.05;4.50;;;0.70;82.90;;;;;;6184489;23;20012;-65
2022/01/07 05:45:54;;;;;;;6.40;3.90;;;0.70;83.00;;;;;;6184602;23;20009;-65
2022/01/07 05:48:20;;;;;;;7.20;4.28;;;0.70;83.00;;;;;;6184861;23;20008;-65
2022/01/07 05:50:46;;;;;;;6.68;4.00;;;0.70;83.00;;;;;;6184640;23;20008;-65
2022/01/07 05:53:11;;;;;;;7.00;4.40;;;0.70;83.00;;;;;;6184741;23;20476;-65
2022/01/07 05:55:37;;;;;;;10.63;6.07;;;0.60;83.00;;;;;;6184809;23;20012;-66
2022/01/07 05:58:03;;;;;;;7.15;4.20;;;0.60;83.00;;;;;;6185340;23;20012;-65
2022/01/07 06:00:29;;;;;;;9.38;5.40;;;0.60;82.80;;;;;;6184598;23;20061;-66
2022/01/07 06:02:56;;;;;;;8.57;4.70;;;0.70;82.70;;;;;;6184750;23;20006;-66
2022/01/07 06:05:22;;;;;;;7.10;4.57;;;0.70;82.70;;;;;;6184462;23;20005;-66
2022/01/07 06:07:47;;;;;;;6.68;4.47;;;0.70;82.60;;;;;;6184677;23;20012;-65
2022/01/07 06:10:13;;;;;;;7.18;4.38;;;0.80;82.70;;;;;;6184498;23;20009;-68
2022/01/07 06:12:39;;;;;;;7.07;4.20;;;0.80;82.60;;;;;;6184367;23;20001;-66
2022/01/07 06:15:06;;;;;;;9.02;5.07;;;0.80;82.80;;;;;;6184514;23;20012;-65
2022/01/07 06:17:31;;;;;;;6.28;3.90;;;0.80;82.70;;;;;;6184613;23;20368;-67
2022/01/07 06:19:57;;;;;;;6.65;4.10;;;0.90;82.10;;;;;;6184572;23;20005;-65
2022/01/07 06:22:22;;;;;;;7.13;4.50;;;0.90;82.00;;;;;;6184335;23;20103;-65
2022/01/07 06:24:48;;;;;;;7.43;4.72;;;0.90;82.10;;;;;;6184174;23;20012;-66
2022/01/07 06:27:14;;;;;;;8.32;5.03;;;0.90;82.00;;;;;;6184348;23;20004;-66
2022/01/07 06:29:39;;;;;;;7.22;4.50;;;0.90;81.90;;;;;;6184458;23;20004;-66
2022/01/07 06:32:06;;;;;;;6.20;3.92;;;1.00;81.50;;;;;;6184313;23;20012;-66
2022/01/07 06:34:32;;;;;;;8.98;5.50;;;1.00;81.00;;;;;;6184227;23;20016;-65
2022/01/07 06:36:59;;;;;;;7.95;4.97;;;1.10;81.60;;;;;;6184307;23;20325;-66
2022/01/07 06:39:28;;;;;;;8.10;4.82;;;1.10;81.30;;;;;;6184279;23;20500;-66
2022/01/07 06:41:54;;;;;;;7.85;4.40;;;1.20;80.50;;;;;;6158020;23;20012;-65
2022/01/07 06:44:20;;;;;;;6.03;3.60;;;1.30;80.40;;;;;;6183966;23;20005;-66
2022/01/07 06:46:46;;;;;;;8.85;5.32;;;1.30;80.10;;;;;;6184283;23;20328;-65
2022/01/07 06:49:13;;;;;;;5.95;3.80;;;1.30;80.20;;;;;;6184277;23;20433;-66
2022/01/07 06:51:40;;;;;;;6.65;4.05;;;1.40;79.50;;;;;;6184159;23;20024;-66
2022/01/07 06:54:07;;;;;;;7.00;4.00;;;1.40;79.70;;;;;;6184513;23;20081;-65
2022/01/07 06:56:34;;;;;;;7.32;4.50;;;1.40;79.80;;;;;;6183765;23;20370;-66
2022/01/07 06:59:00;;;;;;;7.22;4.22;;;1.40;80.00;;;;;;6184074;23;20001;-66
2022/01/07 07:01:27;;;;;;;6.82;4.28;;;1.40;79.90;;;;;;6184505;23;20001;-65
2022/01/07 07:03:53;;;;;;;6.05;3.70;;;1.40;79.80;;;;;;6157826;23;20119;-67
2022/01/07 07:06:19;;;;;;;6.03;3.50;;;1.40;79.70;;;;;;6184181;23;20371;-66
2022/01/07 07:08:45;;;;;;;6.70;3.90;;;1.30;79.70;;;;;;6184371;23;20001;-66
2022/01/07 07:11:10;;;;;;;6.82;4.13;;;1.40;80.70;;;;;;6184062;23;20002;-66
2022/01/07 07:13:36;;;;;;;5.93;3.65;;;1.40;79.60;;;;;;6183939;23;20056;-66
2022/01/07 07:16:01;;;;;;;6.40;3.83;;;1.40;79.30;;;;;;6183695;23;20008;-66
2022/01/07 07:18:27;;;;;;;6.53;4.15;;;1.40;79.70;;;;;;6183578;23;20001;-66
2022/01/07 07:20:53;;;;;;;7.43;3.97;;;1.40;79.60;;;;;;6183827;23;20088;-66
2022/01/07 07:23:18;;;;;;;7.72;4.43;;;1.40;79.70;;;;;;6183810;23;20009;-66
2022/01/07 07:25:44;;;;;;;7.07;4.22;;;1.40;80.10;;;;;;6183672;23;20329;-66
2022/01/07 07:28:10;;;;;;;7.20;4.13;;;1.40;79.70;;;;;;6183911;23;19997;-69
2022/01/07 07:30:39;;;;;;;7.65;4.53;;;1.40;80.00;;;;;;6183747;23;19997;-67
2022/01/07 07:38:36;;;;;;;7.53;4.32;;;1.50;79.00;;;;;;6183636;23;20059;-66
2022/01/07 07:41:02;;;;;;;6.55;3.90;;;1.50;78.50;;;;;;6183702;23;20001;-66
2022/01/07 07:43:28;;;;;;;6.80;3.95;;;1.50;78.70;;;;;;6183683;23;20053;-66
2022/01/07 07:45:54;;;;;;;6.22;3.85;;;1.50;78.50;;;;;;6183298;23;20077;-66
2022/01/07 07:48:20;;;;;;;6.07;3.47;;;1.60;78.50;;;;;;6183982;23;20005;-66
2022/01/07 07:50:45;;;;;;;6.50;3.95;;;1.60;78.40;;;;;;6184505;23;20001;-65
2022/01/07 07:53:12;;;;;;;9.65;6.25;;;1.70;78.30;;;;;;6183539;23;20080;-66
2022/01/07 07:55:37;;;;;;;7.45;4.05;;;1.70;78.00;;;;;;6183451;23;20009;-66
2022/01/07 07:58:03;;;;;;;6.40;3.80;;;1.80;77.70;;;;;;6183590;23;20421;-66
2022/01/07 08:00:29;;;;;;;7.68;5.15;;;1.80;77.50;;;;;;6183222;23;20008;-67
2022/01/07 08:02:55;;;;;;;6.70;3.90;;;1.80;77.20;;;;;;6183558;23;20005;-66
2022/01/07 08:05:20;;;;;;;8.75;5.47;;;1.80;77.30;;;;;;6183314;23;20079;-67
2022/01/07 08:07:46;;;;;;;7.05;4.85;;;1.90;77.10;;;;;;6183609;23;20472;-66
2022/01/07 08:10:12;;;;;;;6.57;3.80;;;1.90;76.40;;;;;;6183701;23;20002;-66
2022/01/07 08:12:53;;;;;;;5.70;3.55;;;2.00;75.90;;;;;;6183176;23;19997;-65
2022/01/07 08:18:04;;;;;;;7.15;4.20;;;2.00;75.90;;;;;;6184010;23;20020;-67
2022/01/07 08:20:31;;;;;;;8.40;6.05;;;2.10;75.40;;;;;;6183595;23;20009;-66
2022/01/07 08:22:57;;;;;;;6.78;4.47;;;2.10;75.60;;;;;;6183846;23;20011;-65
2022/01/07 08:25:26;;;;;;;7.03;4.47;;;2.10;75.20;;;;;;6182724;23;20080;-66
2022/01/07 08:27:55;;;;;;;6.43;4.20;;;2.00;75.10;;;;;;6183911;23;20458;-65
2022/01/07 08:30:25;;;;;;;7.32;5.10;;;2.10;75.00;;;;;;6183554;23;20005;-67
2022/01/07 08:35:38;;;;;;;7.97;4.30;;;2.00;76.20;;;;;;6183528;23;20021;-66
2022/01/07 08:38:04;;;;;;;8.65;4.57;;;2.00;74.90;;;;;;6183268;23;20012;-66
2022/01/07 08:40:30;;;;;;;6.38;4.00;;;2.10;74.70;;;;;;6157466;23;20375;-67
2022/01/07 08:42:56;;;;;;;6.20;3.70;;;2.00;74.90;;;;;;6183529;23;20033;-66
2022/01/07 08:45:23;;;;;;;5.75;3.53;;;2.00;74.60;;;;;;6183929;23;20471;-67
2022/01/07 08:47:49;;;;;;;7.85;4.40;;;2.10;74.10;;;;;;6183587;23;20485;-67
2022/01/07 08:50:14;;;;;;;6.70;3.90;;;2.20;74.60;;;;;;6183896;23;20004;-68
2022/01/07 08:52:40;;;;;;;6.70;3.63;;;2.30;73.10;;;;;;6183139;23;20008;-67
2022/01/07 08:55:06;;;;;;;5.20;3.28;;;2.40;72.20;;;;;;6183346;23;20005;-66
2022/01/07 08:57:31;;;;;;;6.22;3.42;;;2.50;71.10;;;;;;6183389;23;20005;-66
2022/01/07 08:59:58;;;;;;;5.63;3.20;;;2.60;70.70;;;;;;6183316;23;20001;-66
2022/01/07 09:02:23;;;;;;;6.07;3.53;;;2.50;70.70;;;;;;6183172;23;20013;-66
2022/01/07 09:04:49;;;;;;;5.80;3.45;;;2.50;71.10;;;;;;6183305;23;20321;-67
2022/01/07 09:07:15;;;;;;;5.53;3.20;;;2.60;71.10;;;;;;6183256;23;19997;-67
2022/01/07 09:09:41;;;;;;;5.70;3.30;;;2.60;70.90;;;;;;6156927;23;20038;-67
2022/01/07 09:12:07;;;;;;;6.07;3.38;;;2.70;71.50;;;;;;6183237;23;20005;-67
2022/01/07 09:14:33;;;;;;;6.50;3.50;;;3.10;72.00;;;;;;6182910;23;20007;-67
2022/01/07 09:16:58;;;;;;;6.45;3.30;;;3.70;70.00;;;;;;6183609;23;20005;-66
2022/01/07 09:19:26;;;;;;;5.35;3.20;;;4.20;69.50;;;;;;6184898;23;20079;-66
2022/01/07 09:21:51;;;;;;;5.57;3.25;;;4.60;67.30;;;;;;6184931;23;20036;-66
2022/01/07 09:24:17;;;;;;;5.00;2.53;;;5.20;66.90;;;;;;6184654;23;20001;-66
2022/01/07 09:26:43;;;;;;;4.70;2.40;;;5.50;61.80;;;;;;6184753;23;20067;-66
2022/01/07 09:29:09;;;;;;;5.13;2.70;;;5.50;59.30;;;;;;6158673;23;20010;-66
2022/01/07 09:31:34;;;;;;;5.28;2.33;;;5.40;59.90;;;;;;6185382;23;20012;-66
2022/01/07 09:34:00;;;;;;;3.70;2.10;;;5.60;60.20;;;;;;6184991;23;20021;-65
2022/01/07 09:36:26;;;;;;;4.40;2.03;;;5.90;59.20;;;;;;6184865;23;20005;-68
2022/01/07 09:38:52;;;;;;;4.88;2.20;;;6.10;58.50;;;;;;6184905;23;20426;-66
2022/01/07 09:41:17;;;;;;;5.15;2.40;;;6.20;57.00;;;;;;6184874;23;20429;-67
2022/01/07 09:43:44;;;;;;;4.68;2.10;;;6.50;58.40;;;;;;6184910;23;20084;-67
2022/01/07 09:46:14;;;;;;;4.90;1.90;;;6.50;56.50;;;;;;6184624;23;20084;-66
2022/01/07 09:48:41;;;;;;;5.32;2.38;;;6.60;55.50;;;;;;6184686;23;20034;-67
2022/01/07 09:51:07;;;;;;;3.95;1.90;;;6.80;54.80;;;;;;6184717;23;20413;-66
2022/01/07 09:53:32;;;;;;;5.30;2.10;;;7.10;53.60;;;;;;6184732;23;20368;-67
2022/01/07 09:55:58;;;;;;;4.45;2.10;;;6.90;51.40;;;;;;6184357;23;20005;-66
2022/01/07 09:58:24;;;;;;;3.63;1.98;;;6.20;51.00;;;;;;6184337;23;20035;-68
2022/01/07 10:00:49;;;;;;;3.78;1.90;;;5.80;51.40;;;;;;6184520;23;20028;-66
2022/01/07 10:03:17;;;;;;;3.63;1.75;;;5.60;51.70;;;;;;6184554;23;20099;-66
2022/01/07 10:05:50;;;;;;;5.40;2.40;;;5.40;52.60;;;;;;6184462;23;20009;-67
2022/01/07 10:08:21;;;;;;;5.65;2.85;;;5.80;50.90;;;;;;6158246;23;20012;-67
2022/01/07 10:11:07;;;;;;;7.55;3.70;;;5.80;50.30;;;;;;6184704;23;20015;-67
2022/01/07 10:13:33;;;;;;;12.73;6.47;;;5.90;50.40;;;;;;6184803;23;20039;-66
2022/01/07 10:16:22;;;;;;;5.55;2.90;;;6.30;51.60;;;;;;6184333;23;20005;-66
2022/01/07 10:18:48;;;;;;;4.65;1.90;;;6.70;49.20;;;;;;6185237;23;20317;-66
2022/01/07 10:21:16;;;;;;;6.78;3.70;;;6.60;48.50;;;;;;6184487;23;20001;-66
2022/01/07 10:23:46;;;;;;;5.38;2.35;;;6.80;48.60;;;;;;6184541;23;20428;-66
2022/01/07 10:26:15;;;;;;;5.53;2.70;;;6.70;48.70;;;;;;6184157;23;20083;-66
2022/01/07 10:28:40;;;;;;;19.50;16.08;;;6.60;48.40;;;;;;6184033;23;20068;-68
2022/01/07 10:31:08;;;;;;;5.88;3.78;;;6.70;49.40;;;;;;6184369;23;20408;-67
2022/01/07 10:33:41;;;;;;;5.03;2.65;;;6.70;48.30;;;;;;6184173;23;20020;-66
2022/01/07 10:36:06;;;;;;;4.80;2.67;;;6.60;48.20;;;;;;6184108;23;20087;-66
2022/01/07 10:38:34;;;;;;;5.22;3.00;;;6.50;49.10;;;;;;6184158;23;20390;-67
2022/01/07 10:41:01;;;;;;;4.68;2.38;;;6.30;48.50;;;;;;6184227;23;20004;-66
2022/01/07 10:43:32;;;;;;;7.35;4.80;;;6.20;49.60;;;;;;6184230;23;20005;-66
2022/01/07 10:46:20;;;;;;;9.02;6.00;;;6.30;50.00;;;;;;6157731;23;20376;-66
2022/01/07 10:48:51;;;;;;;7.10;2.63;;;6.80;48.60;;;;;;6184162;23;20076;-67
2022/01/07 10:51:23;;;;;;;5.25;2.40;;;7.10;47.10;;;;;;6184075;23;20004;-66
2022/01/07 10:53:59;;;;;;;;;;;7.30;44.70;;;;;;6185029;23;20108;-67
2022/01/07 10:56:39;;;;;;;7.65;2.35;;;7.30;43.90;;;;;;6183900;23;20236;-67
2022/01/07 10:59:15;;;;;;;5.47;2.40;;;7.80;43.50;;;;;;6184380;23;20108;-67
2022/01/07 11:01:48;;;;;;;6.32;2.25;;;8.30;42.80;;;;;;6157726;23;20015;-66
2022/01/07 11:04:26;;;;;;;4.53;2.08;;;8.70;43.80;;;;;;6184081;23;20076;-67
2022/01/07 11:06:53;;;;;;;3.70;1.80;;;9.30;40.90;;;;;;6183806;23;20039;-67
2022/01/07 11:09:20;;;;;;;4.95;2.30;;;9.50;39.50;;;;;;6183987;23;20001;-66
2022/01/07 11:11:57;;;;;;;7.82;3.20;;;9.60;41.10;;;;;;6183850;23;20005;-67
2022/01/07 11:14:30;;;;;;;5.63;2.80;;;9.90;41.30;;;;;;6184572;23;20084;-67
2022/01/07 11:16:58;;;;;;;5.38;2.05;;;10.10;39.60;;;;;;6183794;23;20421;-67
2022/01/07 11:19:31;;;;;;;4.13;1.85;;;10.10;39.00;;;;;;6183840;23;20055;-68
2022/01/07 11:21:57;;;;;;;;;;;10.20;38.90;;;;;;6184466;23;20001;-68
2022/01/07 11:24:36;;;;;;;3.65;1.90;;;10.30;36.70;;;;;;6157239;23;20336;-68
2022/01/07 11:27:16;;;;;;;4.72;1.90;;;10.50;37.10;;;;;;6183983;23;20008;-68
2022/01/07 11:29:50;;;;;;;3.78;1.60;;;10.50;36.60;;;;;;6183834;23;20004;-68
2022/01/07 11:32:40;;;;;;;5.20;2.42;;;10.00;37.70;;;;;;6162762;23;20341;-67
2022/01/07 11:35:21;;;;;;;5.50;1.90;;;10.00;39.30;;;;;;6213788;23;20004;-67
2022/01/07 11:37:55;;;;;;;4.10;1.90;;;10.40;39.40;;;;;;6213587;23;20075;-69
2022/01/07 11:40:44;;;;;;;4.50;2.03;;;10.70;38.30;;;;;;6214279;23;20320;-67
2022/01/07 11:43:18;;;;;;;3.95;1.85;;;10.80;37.70;;;;;;6214279;23;20009;-68
2022/01/07 11:45:45;;;;;;;4.28;1.80;;;10.70;37.50;;;;;;6213163;23;20419;-67
2022/01/07 11:48:13;;;;;;;4.65;2.15;;;10.40;37.30;;;;;;6211868;23;20340;-68
2022/01/07 11:50:54;;;;;;;3.45;1.85;;;10.10;38.10;;;;;;6213381;23;20331;-68
2022/01/07 11:53:21;;;;;;;4.30;2.00;;;9.80;38.20;;;;;;6213426;23;20456;-67
2022/01/07 11:55:49;;;;;;;4.10;1.88;;;9.50;38.30;;;;;;6213549;23;20347;-66
2022/01/07 11:58:15;;;;;;;5.60;1.92;;;9.40;39.50;;;;;;6213308;23;20055;-67
2022/01/07 12:01:00;;;;;;;4.75;2.10;;;9.70;39.10;;;;;;6213350;23;20015;-67
2022/01/07 12:03:40;;;;;;;4.63;2.13;;;9.40;39.00;;;;;;6213445;23;20072;-66
2022/01/07 12:06:21;;;;;;;4.10;1.90;;;9.20;38.70;;;;;;6213213;23;20001;-66
2022/01/07 12:08:58;;;;;;;4.35;1.88;;;8.50;39.10;;;;;;6213084;23;20001;-67
2022/01/07 12:11:39;;;;;;;5.53;2.33;;;7.50;39.50;;;;;;6212680;23;20072;-66
2022/01/07 12:14:12;;;;;;;5.60;2.78;;;6.60;40.80;;;;;;6213234;23;20025;-67
2022/01/07 12:16:39;;;;;;;6.38;3.15;;;5.80;41.90;;;;;;6213087;23;20024;-67
2022/01/07 12:19:18;;;;;;;7.03;2.67;;;5.20;42.80;;;;;;6213165;23;20008;-66
2022/01/07 12:21:45;;;;;;;5.85;2.35;;;4.60;43.80;;;;;;6211456;23;20004;-67
2022/01/07 12:24:12;;;;;;;5.90;2.53;;;4.20;44.30;;;;;;6212903;23;20049;-67
2022/01/07 12:26:38;;;;;;;6.57;2.95;;;3.80;44.80;;;;;;6213146;23;20011;-66
2022/01/07 12:29:04;;;;;;;37.65;23.08;;;3.60;45.70;;;;;;6213049;23;20072;-66
2022/01/07 12:31:30;;;;;;;96.90;59.40;;;3.30;46.20;;;;;;6212946;23;20112;-66
2022/01/07 12:34:02;;;;;;;59.33;39.40;;;3.20;46.80;;;;;;6186752;23;20449;-67
2022/01/07 12:36:32;;;;;;;55.50;43.40;;;3.10;47.20;;;;;;6182819;23;20005;-67
2022/01/07 12:39:02;;;;;;;32.65;26.95;;;3.30;48.20;;;;;;6156563;23;20017;-67
2022/01/07 12:41:27;;;;;;;71.53;57.97;;;3.60;47.80;;;;;;6182774;23;20002;-67
2022/01/07 12:44:12;;;;;;;33.45;28.40;;;4.30;48.30;;;;;;6182748;23;20016;-67
2022/01/07 12:46:39;;;;;;;16.90;11.23;;;5.20;46.70;;;;;;6182729;23;20005;-66
2022/01/07 12:49:09;;;;;;;21.25;13.35;;;5.90;45.90;;;;;;6182917;23;20055;-68
2022/01/07 12:51:36;;;;;;;12.27;6.95;;;6.70;45.10;;;;;;6183286;23;20075;-67
2022/01/07 12:54:05;;;;;;;16.33;9.45;;;7.40;44.10;;;;;;6185178;23;20464;-66
2022/01/07 12:56:36;;;;;;;11.52;6.70;;;7.80;43.00;;;;;;6184998;23;20325;-67
2022/01/07 12:59:17;;;;;;;9.20;5.03;;;7.80;42.90;;;;;;6184955;23;20001;-67
2022/01/07 13:01:47;;;;;;;7.53;3.65;;;8.00;43.00;;;;;;6184839;23;20057;-67
2022/01/07 13:04:22;;;;;;;7.43;3.55;;;8.00;42.60;;;;;;6184505;23;20058;-68
2022/01/07 13:06:57;;;;;;;7.30;3.35;;;7.60;42.30;;;;;;6185324;23;20001;-67